New Albany, Kansas
Current Conditions -  °F | °C
As of 4:52 PM on Sunday 21 Dec 2014 (Local Time) from KCNU Reporting Station
Overcast Overcast  
Wind Chill:   Ceiling: 1500
Heat Index:   Visibility: 10mi
Dew Point:   Wind: 15mph
Humidity: 83%   Direction: 170°S
Pressure: 29.83"   Gusts: 23mph
Location:  37.57°N, 95.94°W
Report Text: KCNU 212252Z AUTO 17013G20KT 10SM OVC015 08/05 A2983 RMK AO2 SLP102 T00780050
Loading
Personal Weather Stations






























Interactive Weather Map New forecast layout! Learn more

10-Day Weather Forecast

Advertisements
Track Severe Weather on mobile